createdAt,value
2022-10-02T00:01:22.037Z,4.43
2022-10-02T00:02:55.137Z,4.58
2022-10-02T00:04:28.902Z,8.78
2022-10-02T00:06:02.056Z,4.41
2022-10-02T00:07:35.286Z,4.86
2022-10-02T00:09:09.371Z,4.47
2022-10-02T00:10:42.681Z,4.10
2022-10-02T00:12:16.238Z,4.16
2022-10-02T00:13:49.538Z,4.26
2022-10-02T00:15:22.651Z,4.48
2022-10-02T00:16:55.614Z,4.27
2022-10-02T00:18:28.366Z,4.26
2022-10-02T00:20:01.538Z,4.36
2022-10-02T00:21:35.614Z,4.74
2022-10-02T00:23:08.606Z,4.56
2022-10-02T00:24:41.566Z,4.72
2022-10-02T00:26:14.448Z,5.21
2022-10-02T00:27:49.206Z,4.87
2022-10-02T00:29:21.975Z,5.01
2022-10-02T00:30:55.008Z,5.20
2022-10-02T00:32:27.897Z,4.48
2022-10-02T00:34:00.463Z,5.22
2022-10-02T00:35:33.481Z,4.88
2022-10-02T00:37:06.081Z,4.85
2022-10-02T00:38:39.023Z,4.53
2022-10-02T00:40:12.458Z,4.68
2022-10-02T00:41:46.487Z,4.87
2022-10-02T00:43:24.989Z,5.06
2022-10-02T00:44:57.703Z,4.88
2022-10-02T00:46:36.252Z,4.80
2022-10-02T00:48:09.807Z,4.58
2022-10-02T00:49:42.579Z,4.84
2022-10-02T00:51:17.535Z,4.82
2022-10-02T00:52:51.284Z,5.22
2022-10-02T00:54:25.015Z,4.93
2022-10-02T00:55:58.807Z,4.80
2022-10-02T00:57:31.451Z,5.28
2022-10-02T00:59:04.705Z,4.79
2022-10-02T01:00:39.017Z,5.08
2022-10-02T01:02:12.793Z,4.94
2022-10-02T01:03:46.917Z,5.02
2022-10-02T01:05:20.389Z,5.45
2022-10-02T01:06:53.221Z,5.22
2022-10-02T01:08:26.642Z,5.28
2022-10-02T01:09:59.635Z,5.04
2022-10-02T01:11:32.898Z,4.95
2022-10-02T01:13:06.634Z,4.50
2022-10-02T01:14:39.729Z,5.07
2022-10-02T01:16:13.352Z,5.23
2022-10-02T01:17:46.038Z,5.36
2022-10-02T01:19:19.260Z,5.46
2022-10-02T01:20:51.626Z,5.35
2022-10-02T01:22:24.855Z,5.27
2022-10-02T01:23:57.064Z,5.16
2022-10-02T01:25:30.735Z,5.68
2022-10-02T01:27:04.038Z,4.90
2022-10-02T01:28:36.625Z,5.43
2022-10-02T01:30:09.263Z,5.35
2022-10-02T01:31:41.764Z,5.13
2022-10-02T01:33:15.017Z,5.15
2022-10-02T01:34:49.941Z,5.79
2022-10-02T01:36:23.107Z,5.38
2022-10-02T01:37:56.343Z,4.87
2022-10-02T01:39:29.520Z,5.65
2022-10-02T01:41:02.633Z,5.25
2022-10-02T01:42:35.994Z,5.96
2022-10-02T01:44:08.596Z,5.05
2022-10-02T01:45:41.107Z,5.01
2022-10-02T01:47:14.321Z,5.71
2022-10-02T01:48:47.392Z,5.69
2022-10-02T01:50:19.773Z,5.85
2022-10-02T01:51:52.835Z,5.83
2022-10-02T01:53:25.677Z,5.84
2022-10-02T01:54:59.480Z,6.13
2022-10-02T01:56:32.514Z,5.56
2022-10-02T01:58:05.904Z,5.98
2022-10-02T01:59:39.368Z,5.83
2022-10-02T02:01:12.408Z,6.07
2022-10-02T02:02:45.120Z,5.76
2022-10-02T02:04:17.877Z,5.55
2022-10-02T02:05:50.592Z,5.69
2022-10-02T02:07:23.680Z,5.82
2022-10-02T02:09:01.559Z,6.22
2022-10-02T02:10:35.829Z,5.93
2022-10-02T02:12:08.777Z,6.12
2022-10-02T02:13:42.384Z,6.08
2022-10-02T02:15:15.493Z,5.78
2022-10-02T02:16:48.305Z,5.93
2022-10-02T02:18:21.478Z,5.97
2022-10-02T02:19:54.157Z,6.36
2022-10-02T02:21:26.710Z,6.19
2022-10-02T02:23:00.270Z,6.47
2022-10-02T02:24:33.010Z,5.79
2022-10-02T02:26:05.508Z,6.62
2022-10-02T02:27:38.435Z,6.51
2022-10-02T02:29:11.558Z,6.12
2022-10-02T02:30:44.923Z,6.06
2022-10-02T02:32:17.808Z,6.03
2022-10-02T02:33:50.856Z,6.04
2022-10-02T02:35:23.628Z,6.24
2022-10-02T02:36:56.507Z,5.81
2022-10-02T02:38:29.189Z,6.24
2022-10-02T02:40:02.561Z,5.91
2022-10-02T02:41:35.224Z,5.78
2022-10-02T02:43:07.561Z,6.30
2022-10-02T02:44:40.880Z,6.25
2022-10-02T02:46:14.776Z,6.44
2022-10-02T02:47:47.189Z,6.38
2022-10-02T02:49:19.676Z,6.22
2022-10-02T02:50:52.243Z,6.28
2022-10-02T02:52:25.191Z,6.39
2022-10-02T02:53:58.098Z,6.58
2022-10-02T02:55:31.027Z,6.56
2022-10-02T02:57:04.251Z,6.85
2022-10-02T02:58:36.966Z,7.35
2022-10-02T03:00:10.104Z,7.42
2022-10-02T03:01:42.693Z,6.91
2022-10-02T03:03:15.204Z,6.69
2022-10-02T03:04:47.999Z,6.66
2022-10-02T03:06:21.454Z,6.67
2022-10-02T03:07:54.611Z,6.57
2022-10-02T03:09:27.571Z,6.37
2022-10-02T03:11:00.250Z,6.89
2022-10-02T03:12:32.569Z,6.99
2022-10-02T03:14:05.463Z,7.15
2022-10-02T03:15:38.985Z,7.00
2022-10-02T03:17:11.726Z,7.26
2022-10-02T03:18:44.613Z,6.71
2022-10-02T03:20:17.569Z,6.82
2022-10-02T03:21:50.181Z,6.80
2022-10-02T03:23:22.651Z,6.90
2022-10-02T03:24:59.432Z,6.33
2022-10-02T03:26:30.802Z,6.20
2022-10-02T03:28:02.103Z,6.20
2022-10-02T03:29:33.448Z,6.83
2022-10-02T03:31:04.865Z,6.67
2022-10-02T03:32:36.199Z,6.82
2022-10-02T03:34:07.623Z,6.46
2022-10-02T03:35:39.156Z,6.33
2022-10-02T03:37:10.664Z,6.33
2022-10-02T03:38:41.992Z,6.23
2022-10-02T03:40:13.451Z,6.85
2022-10-02T03:41:44.793Z,6.85
2022-10-02T03:43:16.146Z,7.39
2022-10-02T03:44:47.430Z,6.05
2022-10-02T03:46:19.005Z,6.58
2022-10-02T03:47:50.439Z,6.64
2022-10-02T03:49:21.782Z,6.58
2022-10-02T03:50:53.231Z,6.56
2022-10-02T03:52:24.499Z,5.89
2022-10-02T03:53:55.940Z,6.72
2022-10-02T03:55:27.408Z,6.05
2022-10-02T03:56:58.675Z,6.14
2022-10-02T03:58:30.119Z,6.52
2022-10-02T04:00:01.733Z,6.09
2022-10-02T04:01:33.599Z,7.12
2022-10-02T04:03:04.884Z,6.54
2022-10-02T04:04:36.254Z,6.42
2022-10-02T04:06:07.667Z,6.21
2022-10-02T04:07:39.452Z,6.57
2022-10-02T04:09:11.006Z,6.34
2022-10-02T04:10:42.270Z,6.32
2022-10-02T04:12:13.596Z,6.64
2022-10-02T04:13:44.991Z,6.64
2022-10-02T04:15:16.523Z,6.56
2022-10-02T04:16:48.024Z,6.68
2022-10-02T04:18:19.356Z,7.06
2022-10-02T04:19:50.961Z,7.23
2022-10-02T04:21:22.238Z,7.39
2022-10-02T04:22:53.521Z,6.86
2022-10-02T04:24:24.959Z,6.68
2022-10-02T04:25:56.213Z,6.79
2022-10-02T04:27:27.684Z,7.46
2022-10-02T04:29:04.114Z,6.56
2022-10-02T04:30:35.525Z,6.86
2022-10-02T04:32:07.280Z,6.65
2022-10-02T04:33:38.888Z,6.48
2022-10-02T04:35:10.600Z,6.32
2022-10-02T04:36:42.354Z,6.44
2022-10-02T04:38:14.105Z,6.36
2022-10-02T04:39:46.763Z,6.72
2022-10-02T04:41:18.237Z,6.21
2022-10-02T04:42:49.631Z,6.21
2022-10-02T04:44:20.975Z,5.89
2022-10-02T04:45:52.639Z,6.07
2022-10-02T04:47:23.968Z,5.80
2022-10-02T04:48:55.433Z,5.66
2022-10-02T04:50:26.924Z,5.46
2022-10-02T04:51:58.223Z,5.59
2022-10-02T04:53:29.559Z,5.34
2022-10-02T04:55:00.833Z,4.66
2022-10-02T04:56:32.101Z,4.85
2022-10-02T04:58:03.442Z,5.23
2022-10-02T04:59:34.721Z,5.00
2022-10-02T05:01:06.087Z,4.59
2022-10-02T05:02:37.566Z,5.22
2022-10-02T05:04:09.024Z,4.73
2022-10-02T05:05:40.465Z,5.07
2022-10-02T05:07:11.818Z,4.21
2022-10-02T05:08:43.235Z,4.08
2022-10-02T05:10:15.887Z,3.69
2022-10-02T05:11:47.360Z,3.92
2022-10-02T05:13:18.861Z,3.46
2022-10-02T05:14:50.453Z,3.51
2022-10-02T05:16:21.821Z,3.43
2022-10-02T05:17:53.350Z,3.60
2022-10-02T05:19:24.704Z,3.36
2022-10-02T05:20:55.978Z,3.92
2022-10-02T05:22:27.305Z,3.32
2022-10-02T05:23:58.656Z,3.34
2022-10-02T05:25:30.251Z,3.13
2022-10-02T05:27:01.592Z,3.28
2022-10-02T05:28:33.011Z,3.45
2022-10-02T05:30:04.372Z,3.76
2022-10-02T05:31:35.922Z,3.64
2022-10-02T05:33:07.240Z,3.34
2022-10-02T05:34:38.654Z,3.24
2022-10-02T05:36:09.923Z,3.23
2022-10-02T05:37:41.295Z,3.41
2022-10-02T05:39:12.594Z,3.45
2022-10-02T05:40:44.004Z,3.01
2022-10-02T05:42:15.319Z,3.46
2022-10-02T05:43:46.568Z,3.39
2022-10-02T05:45:18.114Z,3.12
2022-10-02T05:46:49.959Z,3.03
2022-10-02T05:48:21.456Z,3.01
2022-10-02T05:49:52.758Z,2.90
2022-10-02T05:51:24.150Z,2.84
2022-10-02T05:52:55.484Z,2.98
2022-10-02T05:54:26.873Z,2.71
2022-10-02T05:55:58.287Z,2.85
2022-10-02T05:57:29.687Z,2.97
2022-10-02T05:59:00.943Z,2.71
2022-10-02T06:00:32.278Z,3.08
2022-10-02T06:02:03.840Z,2.59
2022-10-02T06:03:35.400Z,2.69
2022-10-02T06:05:06.681Z,2.53
2022-10-02T06:06:38.302Z,2.51
2022-10-02T06:08:10.053Z,2.61
2022-10-02T06:09:41.724Z,2.41
2022-10-02T06:11:13.061Z,2.52
2022-10-02T06:12:44.411Z,2.70
2022-10-02T06:14:15.751Z,2.63
2022-10-02T06:15:47.275Z,2.55
2022-10-02T06:17:18.819Z,2.82
2022-10-02T06:18:50.702Z,2.47
2022-10-02T06:20:22.046Z,2.68
2022-10-02T06:21:53.387Z,2.43
2022-10-02T06:23:24.807Z,2.68
2022-10-02T06:24:56.246Z,2.65
2022-10-02T06:26:27.691Z,2.32
2022-10-02T06:27:59.280Z,2.34
2022-10-02T06:29:30.743Z,2.50
2022-10-02T06:31:02.186Z,2.42
2022-10-02T06:34:52.525Z,2.44
2022-10-02T06:36:23.909Z,2.70
2022-10-02T06:37:55.303Z,2.87
2022-10-02T06:39:27.572Z,2.75
2022-10-02T06:40:59.417Z,2.69
2022-10-02T06:42:30.863Z,3.01
2022-10-02T06:44:07.249Z,2.53
2022-10-02T06:45:44.977Z,2.76
2022-10-02T06:47:17.954Z,3.02
2022-10-02T06:48:49.816Z,3.34
2022-10-02T06:50:21.501Z,3.28
2022-10-02T06:51:52.909Z,3.12
2022-10-02T06:53:24.257Z,2.96
2022-10-02T06:54:55.725Z,2.93
2022-10-02T06:56:27.169Z,3.06
2022-10-02T06:58:08.722Z,2.80
2022-10-02T06:59:40.296Z,3.14
2022-10-02T07:01:11.837Z,3.60
2022-10-02T07:02:43.144Z,3.61
2022-10-02T07:04:14.644Z,3.76
2022-10-02T07:05:46.450Z,3.78
2022-10-02T07:07:21.244Z,3.47
2022-10-02T07:08:52.570Z,3.95
2022-10-02T07:10:24.104Z,3.82
2022-10-02T07:11:55.793Z,3.79
2022-10-02T07:13:27.554Z,3.72
2022-10-02T07:14:59.396Z,4.22
2022-10-02T07:16:30.808Z,3.62
2022-10-02T07:18:02.340Z,4.37
2022-10-02T07:19:33.628Z,4.32
2022-10-02T07:21:05.026Z,4.32
2022-10-02T07:22:45.133Z,4.37
2022-10-02T07:24:17.392Z,4.67
2022-10-02T07:25:48.741Z,4.78
2022-10-02T07:27:20.200Z,4.70
2022-10-02T07:28:51.462Z,4.91
2022-10-02T07:30:23.028Z,4.60
2022-10-02T07:31:54.779Z,5.01
2022-10-02T07:33:29.883Z,5.18
2022-10-02T07:35:01.673Z,5.03
2022-10-02T07:36:34.511Z,5.44
2022-10-02T07:38:05.975Z,5.64
2022-10-02T07:39:37.667Z,4.97
2022-10-02T07:41:08.892Z,4.92
2022-10-02T07:42:40.576Z,5.25
2022-10-02T07:44:11.906Z,5.09
2022-10-02T07:45:45.305Z,5.25
2022-10-02T07:47:16.912Z,5.51
2022-10-02T07:48:48.301Z,5.52
2022-10-02T07:50:20.158Z,5.45
2022-10-02T07:51:51.636Z,5.42
2022-10-02T07:53:22.937Z,5.57
2022-10-02T07:54:54.191Z,5.32
2022-10-02T07:56:25.661Z,5.16
2022-10-02T07:57:57.110Z,5.61
2022-10-02T07:59:28.366Z,5.79
2022-10-02T08:00:59.736Z,5.50
2022-10-02T08:02:31.446Z,5.91
2022-10-02T08:04:03.108Z,5.76
2022-10-02T08:05:34.378Z,6.13
2022-10-02T08:07:05.716Z,6.35
2022-10-02T08:08:37.163Z,6.43
2022-10-02T08:10:08.715Z,6.25
2022-10-02T08:11:40.133Z,6.73
2022-10-02T08:13:11.476Z,6.37
2022-10-02T08:14:42.759Z,6.14
2022-10-02T08:16:14.265Z,6.44
2022-10-02T08:17:46.048Z,6.69
2022-10-02T08:19:17.429Z,6.49
2022-10-02T08:20:48.725Z,6.58
2022-10-02T08:22:20.388Z,6.29
2022-10-02T08:23:51.708Z,6.32
2022-10-02T08:25:23.161Z,5.65
2022-10-02T08:26:54.534Z,5.99
2022-10-02T08:28:26.269Z,6.13
2022-10-02T08:29:57.875Z,6.13
2022-10-02T08:31:29.352Z,5.93
2022-10-02T08:33:00.649Z,5.75
2022-10-02T08:34:32.033Z,5.57
2022-10-02T08:36:03.427Z,5.72
2022-10-02T08:37:34.859Z,5.61
2022-10-02T08:39:11.257Z,5.63
2022-10-02T08:40:42.859Z,5.80
2022-10-02T08:42:33.958Z,6.02
2022-10-02T08:44:10.436Z,5.95
2022-10-02T08:45:47.041Z,6.60
2022-10-02T08:47:18.519Z,6.36
2022-10-02T08:48:49.951Z,5.96
2022-10-02T08:50:59.533Z,6.19
2022-10-02T08:52:58.621Z,6.43
2022-10-02T08:54:45.046Z,5.85
2022-10-02T08:56:20.106Z,6.11
2022-10-02T08:57:52.189Z,5.47
2022-10-02T08:59:28.600Z,5.69
2022-10-02T09:01:00.106Z,5.62
2022-10-02T09:02:31.686Z,5.54
2022-10-02T09:04:03.003Z,5.62
2022-10-02T09:05:44.421Z,5.99
2022-10-02T09:07:16.200Z,5.87
2022-10-02T09:08:47.895Z,5.97
2022-10-02T09:10:19.258Z,5.95
2022-10-02T09:11:50.617Z,6.08
2022-10-02T09:13:26.878Z,5.97
2022-10-02T09:14:59.068Z,5.94
2022-10-02T09:16:30.814Z,5.92
2022-10-02T09:18:02.105Z,6.49
2022-10-02T09:19:33.885Z,6.59
2022-10-02T09:21:10.733Z,6.25
2022-10-02T09:22:48.141Z,6.08
2022-10-02T09:24:19.796Z,5.74
2022-10-02T09:25:51.355Z,6.03
2022-10-02T09:27:22.804Z,6.19
2022-10-02T09:29:24.574Z,6.28
2022-10-02T09:31:01.828Z,6.28
2022-10-02T09:32:33.362Z,6.13
2022-10-02T09:34:04.620Z,6.29
2022-10-02T09:35:36.166Z,6.14
2022-10-02T09:37:12.521Z,6.14
2022-10-02T09:39:19.210Z,6.03
2022-10-02T09:40:52.122Z,5.60
2022-10-02T09:42:23.580Z,5.61
2022-10-02T09:43:54.984Z,5.67
2022-10-02T09:47:55.721Z,5.82
2022-10-02T09:49:27.248Z,6.64
2022-10-02T09:50:59.361Z,6.62
2022-10-02T09:52:32.257Z,6.37
2022-10-02T09:54:07.841Z,6.09
2022-10-02T09:55:44.319Z,6.61
2022-10-02T09:57:35.835Z,6.71
2022-10-02T09:59:07.401Z,8.03
2022-10-02T10:00:43.908Z,7.94
2022-10-02T10:02:15.832Z,7.90
2022-10-02T10:03:47.190Z,8.11
2022-10-02T10:05:47.174Z,9.27
2022-10-02T10:07:19.122Z,9.74
2022-10-02T10:08:55.736Z,9.54
2022-10-02T10:10:27.426Z,9.07
2022-10-02T10:11:59.794Z,9.51
2022-10-02T10:13:31.250Z,9.42
2022-10-02T10:15:05.259Z,9.45
2022-10-02T10:16:54.828Z,9.85
2022-10-02T10:18:36.888Z,10.74
2022-10-02T10:20:24.462Z,10.60
2022-10-02T10:22:00.949Z,10.37
2022-10-02T10:23:42.504Z,10.08
2022-10-02T10:25:18.793Z,10.49
2022-10-02T10:26:50.246Z,10.36
2022-10-02T10:28:21.813Z,9.70
2022-10-02T10:29:53.121Z,9.46
2022-10-02T10:31:24.452Z,9.77
2022-10-02T10:32:55.880Z,10.17
2022-10-02T10:34:27.346Z,9.64
2022-10-02T10:35:58.668Z,9.31
2022-10-02T10:37:29.988Z,9.71
2022-10-02T10:39:01.330Z,10.11
2022-10-02T10:40:32.744Z,9.73
2022-10-02T10:42:04.019Z,9.22
2022-10-02T10:43:40.372Z,8.82
2022-10-02T10:45:11.984Z,9.16
2022-10-02T10:46:43.283Z,8.50
2022-10-02T10:48:14.665Z,8.30
2022-10-02T10:49:45.946Z,8.52
2022-10-02T10:51:17.422Z,8.47
2022-10-02T10:52:49.007Z,7.90
2022-10-02T10:54:20.334Z,7.74
2022-10-02T10:56:16.728Z,6.71
2022-10-02T10:57:48.003Z,6.65
2022-10-02T10:59:24.405Z,5.94
2022-10-02T11:01:11.760Z,6.00
2022-10-02T11:02:58.909Z,5.68
2022-10-02T11:04:40.335Z,5.24
2022-10-02T11:06:11.607Z,5.32
2022-10-02T11:07:42.943Z,5.06
2022-10-02T11:09:24.523Z,4.93
2022-10-02T11:10:56.101Z,4.79
2022-10-02T11:12:37.635Z,4.89
2022-10-02T11:14:09.059Z,5.51
2022-10-02T11:15:40.423Z,5.16
2022-10-02T11:17:16.725Z,5.15
2022-10-02T11:18:48.345Z,4.77
2022-10-02T11:20:19.692Z,4.99
2022-10-02T11:21:56.762Z,4.84
2022-10-02T11:23:28.084Z,5.08
2022-10-02T11:24:59.446Z,5.13
2022-10-02T11:28:32.041Z,4.83
2022-10-02T11:30:03.407Z,4.42
2022-10-02T11:31:35.507Z,3.90
2022-10-02T11:33:07.102Z,3.98
2022-10-02T11:34:38.432Z,3.93
2022-10-02T11:36:19.828Z,3.78
2022-10-02T11:38:04.021Z,4.07
2022-10-02T11:39:40.710Z,3.74
2022-10-02T11:41:12.254Z,3.14
2022-10-02T11:42:43.893Z,3.37
2022-10-02T11:44:25.329Z,3.05
2022-10-02T11:46:06.691Z,2.90
2022-10-02T11:47:38.261Z,2.72
2022-10-02T11:49:09.525Z,2.79
2022-10-02T11:50:40.962Z,3.04
2022-10-02T11:52:12.511Z,3.10
2022-10-02T11:53:44.087Z,3.15
2022-10-02T11:55:15.654Z,2.75
2022-10-02T11:56:52.334Z,2.69
2022-10-02T11:58:28.864Z,2.82
2022-10-02T12:00:05.486Z,2.73
2022-10-02T12:01:37.493Z,2.93
2022-10-02T12:03:10.220Z,2.96
2022-10-02T12:04:52.084Z,2.90
2022-10-02T12:06:51.032Z,2.87
2022-10-02T12:08:26.658Z,2.53
2022-10-02T12:10:02.979Z,2.58
2022-10-02T12:11:34.986Z,2.59
2022-10-02T12:13:39.458Z,2.63
2022-10-02T12:15:11.192Z,2.53
2022-10-02T12:16:42.589Z,2.93
2022-10-02T12:18:18.280Z,2.97
2022-10-02T12:19:52.272Z,2.78
2022-10-02T12:21:28.986Z,2.82
2022-10-02T12:23:00.445Z,2.59
2022-10-02T12:24:31.798Z,2.82
2022-10-02T12:26:03.114Z,2.63
2022-10-02T12:27:34.475Z,2.58
2022-10-02T12:29:05.828Z,2.64
2022-10-02T12:30:37.359Z,2.46
2022-10-02T12:32:08.851Z,2.49
2022-10-02T12:33:40.314Z,2.57
2022-10-02T12:35:11.673Z,2.33
2022-10-02T12:36:43.149Z,2.86
2022-10-02T12:38:14.596Z,2.44
2022-10-02T12:39:45.885Z,2.63
2022-10-02T12:41:17.204Z,2.56
2022-10-02T12:42:48.498Z,2.71
2022-10-02T12:44:19.893Z,3.05
2022-10-02T12:45:51.260Z,2.81
2022-10-02T12:47:22.686Z,2.61
2022-10-02T12:48:55.059Z,2.62
2022-10-02T12:50:26.427Z,2.81
2022-10-02T12:51:57.791Z,2.98
2022-10-02T12:53:29.214Z,2.79
2022-10-02T12:55:00.810Z,3.00
2022-10-02T12:56:32.287Z,2.82
2022-10-02T12:58:03.699Z,2.93
2022-10-02T12:59:35.225Z,2.68
2022-10-02T13:01:06.603Z,2.87
2022-10-02T13:02:59.684Z,2.50
2022-10-02T13:04:32.545Z,3.05
2022-10-02T13:06:03.821Z,2.81
2022-10-02T13:07:35.186Z,2.71
2022-10-02T13:09:06.596Z,2.82
2022-10-02T13:10:38.119Z,2.51
2022-10-02T13:12:10.606Z,2.91
2022-10-02T13:13:41.964Z,2.61
2022-10-02T13:15:13.586Z,2.94
2022-10-02T13:16:45.246Z,2.72
2022-10-02T13:18:16.667Z,2.94
2022-10-02T13:19:48.258Z,2.83
2022-10-02T13:21:19.861Z,2.34
2022-10-02T13:22:56.229Z,2.71
2022-10-02T13:24:27.584Z,2.41
2022-10-02T13:25:59.015Z,2.68
2022-10-02T13:27:31.630Z,2.57
2022-10-02T13:29:03.111Z,2.48
2022-10-02T13:30:34.636Z,2.48
2022-10-02T13:32:05.976Z,2.75
2022-10-02T13:33:37.436Z,2.26
2022-10-02T13:35:14.029Z,2.85
2022-10-02T13:36:45.565Z,2.64
2022-10-02T13:38:22.106Z,2.82
2022-10-02T13:39:53.516Z,2.60
2022-10-02T13:41:25.033Z,2.67
2022-10-02T13:42:56.511Z,2.62
2022-10-02T13:44:27.803Z,2.90
2022-10-02T13:45:59.641Z,2.72
2022-10-02T13:47:31.490Z,2.73
2022-10-02T13:49:02.969Z,2.64
2022-10-02T13:50:34.324Z,2.75
2022-10-02T13:52:05.772Z,2.62
2022-10-02T13:53:37.615Z,2.77
2022-10-02T13:55:09.374Z,2.62
2022-10-02T13:56:41.098Z,3.00
2022-10-02T13:58:12.922Z,2.63
2022-10-02T13:59:44.271Z,2.82
2022-10-02T14:01:15.804Z,2.56
2022-10-02T14:02:47.174Z,2.37
2022-10-02T14:04:28.622Z,2.65
2022-10-02T14:06:00.291Z,2.54
2022-10-02T14:07:31.688Z,2.12
2022-10-02T14:09:03.045Z,2.04
2022-10-02T14:10:34.582Z,2.25
2022-10-02T14:12:06.138Z,1.95
2022-10-02T14:13:37.518Z,1.90
2022-10-02T14:15:08.896Z,2.44
2022-10-02T14:16:40.446Z,2.19
2022-10-02T14:18:11.879Z,2.02
2022-10-02T14:19:43.426Z,2.09
2022-10-02T14:21:14.875Z,2.07
2022-10-02T14:22:46.264Z,2.01
2022-10-02T14:24:17.758Z,1.82
2022-10-02T14:25:49.092Z,1.95
2022-10-02T14:27:20.460Z,2.17
2022-10-02T14:28:51.875Z,1.94
2022-10-02T14:30:23.196Z,1.95
2022-10-02T14:31:54.608Z,1.67
2022-10-02T14:33:25.942Z,1.86
2022-10-02T14:34:57.313Z,2.08
2022-10-02T14:36:28.640Z,1.98
2022-10-02T14:38:00.060Z,2.06
2022-10-02T14:39:31.529Z,1.86
2022-10-02T14:41:02.885Z,1.98
2022-10-02T14:42:34.275Z,2.41
2022-10-02T14:44:05.691Z,2.73
2022-10-02T14:45:37.160Z,2.37
2022-10-02T14:47:12.066Z,2.31
2022-10-02T14:48:46.663Z,2.41
2022-10-02T14:50:18.005Z,2.22
2022-10-02T14:51:49.645Z,2.33
2022-10-02T14:53:21.137Z,2.70
2022-10-02T14:54:57.560Z,2.21
2022-10-02T14:56:29.252Z,2.62
2022-10-02T14:58:00.700Z,2.29
2022-10-02T14:59:48.690Z,2.06
2022-10-02T15:01:20.143Z,1.92
2022-10-02T15:02:51.658Z,2.07
2022-10-02T15:04:23.143Z,2.18
2022-10-02T15:05:55.061Z,2.40
2022-10-02T15:07:26.394Z,2.52
2022-10-02T15:09:04.231Z,2.13
2022-10-02T15:10:45.738Z,2.35
2022-10-02T15:12:17.203Z,2.27
2022-10-02T15:13:48.619Z,2.02
2022-10-02T15:15:20.245Z,2.19
2022-10-02T15:16:51.573Z,2.12
2022-10-02T15:18:22.981Z,2.43
2022-10-02T15:19:54.660Z,2.37
2022-10-02T15:21:27.158Z,1.98
2022-10-02T15:22:58.558Z,2.58
2022-10-02T15:24:29.974Z,2.41
2022-10-02T15:26:01.457Z,2.39
2022-10-02T15:27:37.900Z,2.43
2022-10-02T15:29:16.852Z,2.55
2022-10-02T15:30:48.757Z,2.40
2022-10-02T15:32:20.589Z,2.41
2022-10-02T15:33:52.709Z,2.50
2022-10-02T15:35:24.231Z,2.57
2022-10-02T15:37:01.032Z,2.61
2022-10-02T15:38:32.511Z,2.52
2022-10-02T15:40:03.974Z,2.55
2022-10-02T15:41:35.860Z,2.28
2022-10-02T15:43:07.667Z,2.74
2022-10-02T15:44:39.199Z,2.67
2022-10-02T15:46:10.588Z,2.66
2022-10-02T15:47:41.970Z,2.37
2022-10-02T15:49:13.256Z,2.72
2022-10-02T15:50:44.684Z,2.49
2022-10-02T15:52:16.159Z,2.81
2022-10-02T15:53:47.451Z,2.65
2022-10-02T15:55:19.761Z,2.84
2022-10-02T15:56:51.446Z,3.01
2022-10-02T15:58:23.039Z,2.74
2022-10-02T15:59:59.669Z,2.64
2022-10-02T16:01:31.614Z,2.59
2022-10-02T16:03:03.033Z,2.94
2022-10-02T16:04:34.474Z,2.88
2022-10-02T16:06:26.005Z,2.78
2022-10-02T16:08:27.544Z,2.76
2022-10-02T16:09:59.026Z,2.53
2022-10-02T16:11:30.361Z,2.64
2022-10-02T16:13:01.907Z,2.89
2022-10-02T16:14:33.484Z,2.49
2022-10-02T16:16:05.733Z,2.22
2022-10-02T16:17:38.260Z,2.23
2022-10-02T16:19:09.524Z,2.28
2022-10-02T16:20:40.884Z,2.12
2022-10-02T16:22:17.012Z,2.02
2022-10-02T16:23:49.410Z,2.16
2022-10-02T16:25:20.804Z,2.23
2022-10-02T16:27:02.209Z,2.79
2022-10-02T16:28:33.746Z,2.39
2022-10-02T16:30:05.099Z,2.14
2022-10-02T16:31:36.724Z,2.14
2022-10-02T16:33:28.480Z,2.42
2022-10-02T16:35:05.251Z,2.28
2022-10-02T16:36:36.830Z,2.01
2022-10-02T16:38:08.462Z,2.75
2022-10-02T16:39:40.172Z,2.54
2022-10-02T16:41:11.538Z,2.44
2022-10-02T16:42:49.322Z,2.50
2022-10-02T16:44:20.764Z,2.70
2022-10-02T16:45:52.359Z,2.54
2022-10-02T16:47:33.940Z,2.43
2022-10-02T16:49:06.091Z,2.28
2022-10-02T16:50:41.598Z,2.49
2022-10-02T16:52:13.589Z,2.47
2022-10-02T16:53:45.218Z,2.90
2022-10-02T16:55:16.701Z,2.38
2022-10-02T16:56:48.262Z,2.54
2022-10-02T16:58:19.704Z,2.93
2022-10-02T16:59:51.427Z,2.45
2022-10-02T17:01:23.644Z,2.52
2022-10-02T17:02:55.539Z,2.43
2022-10-02T17:06:49.195Z,2.12
2022-10-02T17:08:20.708Z,2.34
2022-10-02T17:09:52.754Z,2.41
2022-10-02T17:11:24.251Z,2.66
2022-10-02T17:12:55.608Z,2.64
2022-10-02T17:14:27.021Z,2.44
2022-10-02T17:15:59.218Z,2.60
2022-10-02T17:17:30.720Z,2.48
2022-10-02T17:19:02.395Z,2.77
2022-10-02T17:20:33.864Z,2.83
2022-10-02T17:22:27.518Z,2.51
2022-10-02T17:23:59.111Z,2.46
2022-10-02T17:25:31.340Z,2.62
2022-10-02T17:27:02.823Z,2.54
2022-10-02T17:28:34.857Z,2.69
2022-10-02T17:30:07.123Z,2.76
2022-10-02T17:31:58.667Z,2.79
2022-10-02T17:33:30.190Z,3.86
2022-10-02T17:35:01.702Z,4.44
2022-10-02T17:36:33.144Z,4.25
2022-10-02T17:38:04.867Z,3.53
2022-10-02T17:39:36.440Z,3.53
2022-10-02T17:41:07.832Z,3.18
2022-10-02T17:42:39.255Z,3.07
2022-10-02T17:46:34.398Z,2.86
2022-10-02T17:48:06.417Z,2.70
2022-10-02T17:49:37.939Z,2.60
2022-10-02T17:51:30.967Z,2.96
2022-10-02T17:53:18.815Z,2.70
2022-10-02T17:54:50.512Z,2.49
2022-10-02T17:56:21.862Z,2.47
2022-10-02T17:57:53.659Z,2.77
2022-10-02T17:59:46.613Z,2.57
2022-10-02T18:01:18.034Z,2.78
2022-10-02T18:02:49.401Z,2.89
2022-10-02T18:04:20.886Z,3.60
2022-10-02T18:05:52.365Z,5.23
2022-10-02T18:07:23.713Z,10.84
2022-10-02T18:08:55.106Z,9.28
2022-10-02T18:10:26.461Z,11.33
2022-10-02T18:11:57.900Z,19.37
2022-10-02T18:13:29.294Z,9.55
2022-10-02T18:15:00.639Z,6.08
2022-10-02T18:16:32.297Z,4.56
2022-10-02T18:18:04.341Z,3.19
2022-10-02T18:19:35.628Z,2.79
2022-10-02T18:21:07.333Z,2.99
2022-10-02T18:22:38.955Z,2.85
2022-10-02T18:24:10.676Z,2.88
2022-10-02T18:25:42.139Z,2.78
2022-10-02T18:27:13.423Z,2.65
2022-10-02T18:28:45.172Z,2.82
2022-10-02T18:30:17.045Z,2.61
2022-10-02T18:31:56.086Z,2.51
2022-10-02T18:33:28.227Z,2.83
2022-10-02T18:34:59.498Z,3.41
2022-10-02T18:36:38.671Z,2.93
2022-10-02T18:38:21.662Z,2.60
2022-10-02T18:39:57.879Z,2.93
2022-10-02T18:41:38.777Z,3.10
2022-10-02T18:43:10.643Z,3.09
2022-10-02T18:44:41.942Z,3.64
2022-10-02T18:46:13.429Z,3.25
2022-10-02T18:47:44.959Z,3.36
2022-10-02T18:49:17.612Z,3.20
2022-10-02T18:50:49.759Z,3.28
2022-10-02T18:52:21.339Z,3.13
2022-10-02T18:53:54.421Z,3.34
2022-10-02T18:55:25.842Z,3.70
2022-10-02T18:56:57.152Z,3.96
2022-10-02T18:58:28.490Z,3.23
2022-10-02T18:59:59.828Z,3.45
2022-10-02T19:01:31.205Z,3.18
2022-10-02T19:03:02.545Z,3.12
2022-10-02T19:04:33.847Z,3.41
2022-10-02T19:06:09.143Z,3.72
2022-10-02T19:07:40.776Z,3.92
2022-10-02T19:09:12.234Z,4.64
2022-10-02T19:10:43.758Z,5.33
2022-10-02T19:12:15.221Z,6.33
2022-10-02T19:13:46.618Z,9.21
2022-10-02T19:15:17.951Z,9.10
2022-10-02T19:16:49.864Z,16.77
2022-10-02T19:18:21.606Z,13.13
2022-10-02T19:19:52.952Z,24.42
2022-10-02T19:21:24.383Z,13.94
2022-10-02T19:22:55.823Z,6.38
2022-10-02T19:24:27.206Z,4.45
2022-10-02T19:25:58.664Z,3.64
2022-10-02T19:27:30.198Z,3.34
2022-10-02T19:29:02.212Z,3.50
2022-10-02T19:30:35.473Z,3.29
2022-10-02T19:32:06.818Z,3.59
2022-10-02T19:33:38.266Z,3.78
2022-10-02T19:35:10.337Z,4.16
2022-10-02T19:36:41.764Z,4.21
2022-10-02T19:38:13.268Z,3.96
2022-10-02T19:39:44.974Z,3.33
2022-10-02T19:41:16.402Z,3.34
2022-10-02T19:42:48.185Z,3.51
2022-10-02T19:44:19.516Z,3.38
2022-10-02T19:45:51.001Z,3.57
2022-10-02T19:47:22.283Z,3.64
2022-10-02T19:48:53.617Z,3.44
2022-10-02T19:50:25.121Z,3.59
2022-10-02T19:51:56.440Z,3.53
2022-10-02T19:53:27.939Z,3.38
2022-10-02T19:54:59.204Z,3.34
2022-10-02T19:56:30.466Z,4.78
2022-10-02T19:58:01.834Z,6.38
2022-10-02T19:59:33.209Z,11.84
2022-10-02T20:01:04.587Z,11.27
2022-10-02T20:02:35.961Z,12.02
2022-10-02T20:04:07.349Z,11.82
2022-10-02T20:05:38.837Z,5.69
2022-10-02T20:07:10.414Z,5.88
2022-10-02T20:08:41.681Z,7.33
2022-10-02T20:10:13.025Z,12.34
2022-10-02T20:11:44.387Z,15.68
2022-10-02T20:13:15.989Z,26.63
2022-10-02T20:14:47.378Z,19.12
2022-10-02T20:16:20.326Z,15.82
2022-10-02T20:17:56.750Z,12.28
2022-10-02T20:19:28.093Z,7.83
2022-10-02T20:20:59.745Z,8.22
2022-10-02T20:22:31.282Z,9.17
2022-10-02T20:24:02.949Z,9.70
2022-10-02T20:25:34.679Z,9.99
2022-10-02T20:27:06.098Z,7.92
2022-10-02T20:28:37.665Z,7.36
2022-10-02T20:30:09.381Z,11.17
2022-10-02T20:31:41.008Z,10.23
2022-10-02T20:33:12.684Z,10.73
2022-10-02T20:34:44.364Z,11.54
2022-10-02T20:36:39.208Z,9.72
2022-10-02T20:38:10.519Z,7.33
2022-10-02T20:39:41.775Z,6.73
2022-10-02T20:41:18.502Z,6.38
2022-10-02T20:42:54.881Z,7.29
2022-10-02T20:44:26.201Z,8.12
2022-10-02T20:45:59.535Z,8.32
2022-10-02T20:47:30.860Z,9.14
2022-10-02T20:49:08.863Z,7.09
2022-10-02T20:50:40.815Z,9.57